• Join FlightAware (Why Join?)
  • Login
  • US Flag GB Flag 
02:26 EDT


 

Airport Tracker/Info


-or-


 

Live Flight TrackerFlight Track Log ✈ N100PM ✈ 27-Aug-2013 ✈ KAPF - KAPF

Flight Track Log - Related Links

Times and Time Zones

All times are in EDT time to prevent confusion due to time zone crossing. See the N100PM flight status page for this flight to view local times or setup timezone preferences in your user account.

Time Position Orientation Groundspeed Altitude Reporting Facility
EDT Latitude Longitude Course Direction KTS MPH feet Rate Location/Type
11:12 26.1524 -81.7756 North  Level Estimated
11:13 26.1585 -81.7748 North  Level FlightAware Approximate
11:14 26.1646 -81.7739 North  Level FlightAware Approximate
11:15 26.1707 -81.7731 North  Level FlightAware Approximate
11:16 26.1768 -81.7722 North  Level FlightAware Approximate
11:17 26.1707 -81.7731 North  Level Estimated
11:18 26.1769 -81.7730 North  Level FlightAware Approximate
11:19 26.1830 -81.7729 North  Level FlightAware Approximate
11:20 26.1892 -81.7728 North  Level FlightAware Approximate
11:21 26.1953 -81.7727 North  Level FlightAware Approximate
11:22 26.2014 -81.7725 North  Level FlightAware Approximate
11:23 26.2076 -81.7724 North  Level FlightAware Approximate
11:24 26.2137 -81.7723 North  Level FlightAware Approximate
11:25 26.2199 -81.7722 North  Level FlightAware Approximate
11:26 26.2260 -81.7721 North  Level FlightAware Approximate
11:27 26.2321 -81.7720 North  Level FlightAware Approximate
11:28 26.2383 -81.7719 North  Level FlightAware Approximate
11:29 26.2444 -81.7718 North  Level FlightAware Approximate
11:30 26.2506 -81.7717 North  Level FlightAware Approximate
11:31 26.2567 -81.7715 North  Level FlightAware Approximate
11:32 26.2628 -81.7714 North  Level FlightAware Approximate
11:33 26.2690 -81.7713 North  Level FlightAware Approximate
11:34 26.2751 -81.7712 North  Level FlightAware Approximate
11:35 26.2813 -81.7711 North  Level FlightAware Approximate
11:36 26.2874 -81.7710 North  Level FlightAware Approximate
11:37 26.2935 -81.7709 North  Level FlightAware Approximate
11:38 26.2997 -81.7707 North  Level FlightAware Approximate
11:39 26.3058 -81.7706 North  Level FlightAware Approximate
11:40 26.3120 -81.7705 North  Level FlightAware Approximate
11:41 26.3181 -81.7704 North  Level FlightAware Approximate
11:42 26.3242 -81.7703 North  Level FlightAware Approximate
11:43 26.3304 -81.7702 North  Level FlightAware Approximate
11:44 26.3365 -81.7700 North  Level FlightAware Approximate
11:45 26.3427 -81.7699 North  Level FlightAware Approximate
11:46 26.3488 -81.7698 North  Level FlightAware Approximate
11:47 26.3549 -81.7697 North  Level FlightAware Approximate
11:48 26.3611 -81.7696 North  Level FlightAware Approximate
11:49 26.3672 -81.7695 North  Level FlightAware Approximate
11:50 26.3734 -81.7693 North  Level FlightAware Approximate
11:51 26.3795 -81.7692 North  Level FlightAware Approximate
11:52 26.3856 -81.7691 North  Level FlightAware Approximate
11:53 26.3918 -81.7690 North  Level FlightAware Approximate
11:54 26.3979 -81.7689 North  Level FlightAware Approximate
11:55 26.4041 -81.7688 North  Level FlightAware Approximate
11:56 26.4102 -81.7687 North  Level FlightAware Approximate
11:57 26.4163 -81.7685 North  Level FlightAware Approximate
11:58 26.4225 -81.7684 North  Level FlightAware Approximate
11:59 26.4286 -81.7683 North  Level FlightAware Approximate
12:00 26.4348 -81.7682 North  Level FlightAware Approximate
12:01 26.4409 -81.7681 North  Level FlightAware Approximate
12:02 26.4470 -81.7680 North  Level FlightAware Approximate
12:03 26.4532 -81.7679 North  Level FlightAware Approximate
12:04 26.4593 -81.7677 North  Level FlightAware Approximate
12:05 26.4655 -81.7676 North  Level FlightAware Approximate
12:06 26.4593 -81.7678 180° South  Level Estimated
12:07 26.4532 -81.7678 180° South  Level FlightAware Approximate
12:08 26.4470 -81.7677 180° South  Level FlightAware Approximate
12:09 26.4409 -81.7677 180° South  Level FlightAware Approximate
12:10 26.4348 -81.7677 180° South  Level FlightAware Approximate
12:11 26.4286 -81.7676 180° South  Level FlightAware Approximate
12:12 26.4225 -81.7676 180° South  Level FlightAware Approximate
12:13 26.4163 -81.7676 180° South  Level FlightAware Approximate
12:14 26.4102 -81.7675 180° South  Level FlightAware Approximate
12:15 26.4041 -81.7675 180° South  Level FlightAware Approximate
12:16 26.3979 -81.7675 180° South  Level FlightAware Approximate
12:17 26.3918 -81.7675 180° South  Level FlightAware Approximate
12:18 26.3856 -81.7674 180° South  Level FlightAware Approximate
12:19 26.3795 -81.7674 180° South  Level FlightAware Approximate
12:20 26.3734 -81.7674 180° South  Level FlightAware Approximate
12:21 26.3672 -81.7673 180° South  Level FlightAware Approximate
12:22 26.3611 -81.7673 180° South  Level FlightAware Approximate
12:23 26.3549 -81.7673 180° South  Level FlightAware Approximate
12:24 26.3488 -81.7673 180° South  Level FlightAware Approximate
12:25 26.3427 -81.7672 180° South  Level FlightAware Approximate
12:26 26.3365 -81.7672 180° South  Level FlightAware Approximate
12:27 26.3304 -81.7672 180° South  Level FlightAware Approximate
12:28 26.3242 -81.7671 180° South  Level FlightAware Approximate
12:29 26.3181 -81.7671 180° South  Level FlightAware Approximate
12:30 26.3120 -81.7671 180° South  Level FlightAware Approximate
12:31 26.3058 -81.7670 180° South  Level FlightAware Approximate
12:32 26.2997 -81.7670 180° South  Level FlightAware Approximate
12:33 26.2935 -81.7670 180° South  Level FlightAware Approximate
12:34 26.2874 -81.7670 180° South  Level FlightAware Approximate
12:35 26.2813 -81.7669 180° South  Level FlightAware Approximate
12:36 26.2751 -81.7669 180° South  Level FlightAware Approximate
12:37 26.2690 -81.7669 180° South  Level FlightAware Approximate
12:38 26.2628 -81.7669 180° South  Level FlightAware Approximate
12:39 26.2567 -81.7668 180° South  Level FlightAware Approximate
12:40 26.2506 -81.7668 180° South  Level FlightAware Approximate
12:41 26.2444 -81.7668 180° South  Level FlightAware Approximate
12:42 26.2383 -81.7667 180° South  Level FlightAware Approximate
12:43 26.2321 -81.7667 180° South  Level FlightAware Approximate
12:44 26.2260 -81.7667 180° South  Level FlightAware Approximate
12:45 26.2199 -81.7667 180° South  Level FlightAware Approximate
12:46 26.2137 -81.7666 180° South  Level FlightAware Approximate
12:47 26.2199 -81.7667 360° North  Level FlightAware Approximate
12:48 26.2137 -81.7666 180° South  Level FlightAware Approximate
12:49 26.2199 -81.7667 360° North  Level FlightAware Approximate
12:50 26.2137 -81.7666 180° South  Level FlightAware Approximate
12:51 26.2199 -81.7667 360° North  Level FlightAware Approximate
12:52 26.2137 -81.7666 180° South  Level FlightAware Approximate
12:53 26.2199 -81.7667 360° North  Level FlightAware Approximate
12:54 26.2137 -81.7666 180° South  Level FlightAware Approximate
12:55 26.2076 -81.7675 180° South  Level Estimated
12:56 26.2015 -81.7674 179° South  Level FlightAware Approximate
12:57 26.1954 -81.7674 179° South  Level FlightAware Approximate
12:58 26.1892 -81.7673 179° South  Level FlightAware Approximate
12:59 26.1831 -81.7672 179° South  Level FlightAware Approximate
13:00 26.1769 -81.7671 179° South  Level FlightAware Approximate
13:01 26.1708 -81.7670 179° South  Level FlightAware Approximate
13:02 26.1646 -81.7669 179° South  Level FlightAware Approximate
13:03 26.1585 -81.7668 179° South  Level FlightAware Approximate
13:04 26.1524 -81.7667 179° South  Level FlightAware Approximate
13:05 26.1462 -81.7666 179° South  Level FlightAware Approximate
13:06 26.1500 -81.7667 180° South  Level FlightAware Approximate
13:07 26.1518 -81.7732 180° South  Level Estimated
13:08 26.1500 -81.7667 180° South  Level FlightAware Approximate
13:09 26.1518 -81.7732 180° South  Level Estimated
13:10 26.1500 -81.7667 180° South  Level FlightAware Approximate
13:11 26.1518 -81.7732 180° South  Level Estimated
13:12 26.1500 -81.7667 180° South  Level FlightAware Approximate
13:13 26.1518 -81.7732 180° South  Level Estimated
13:14 26.1500 -81.7667 180° South  Level FlightAware Approximate
13:15 26.1518 -81.7732 180° South  Level Estimated
13:16 26.1500 -81.7667 180° South  Level FlightAware Approximate
13:17 26.1518 -81.7732 180° South  Level Estimated
13:18 26.1500 -81.7667 180° South  Level FlightAware Approximate
13:19 26.1518 -81.7732 180° South  Level Estimated
13:20 26.1500 -81.7667 180° South  Level FlightAware Approximate
13:21 26.1518 -81.7732 180° South  Level Estimated
13:22 26.1500 -81.7667 180° South  Level FlightAware Approximate